sensor_id;sensor_type;location;lat;lon;timestamp;P1;durP1;ratioP1;P2;durP2;ratioP2
7359;SDS011;3720;48.274;7.796;2024-01-10T00:02:25;46.85;;;23.80;;
7359;SDS011;3720;48.274;7.796;2024-01-10T00:04:57;47.10;;;23.13;;
7359;SDS011;3720;48.274;7.796;2024-01-10T00:07:30;48.60;;;23.73;;
7359;SDS011;3720;48.274;7.796;2024-01-10T00:10:02;50.83;;;24.25;;
7359;SDS011;3720;48.274;7.796;2024-01-10T00:12:35;54.65;;;25.88;;
7359;SDS011;3720;48.274;7.796;2024-01-10T00:15:07;48.50;;;23.08;;
7359;SDS011;3720;48.274;7.796;2024-01-10T00:17:40;48.67;;;23.15;;
7359;SDS011;3720;48.274;7.796;2024-01-10T00:20:12;48.42;;;24.73;;
7359;SDS011;3720;48.274;7.796;2024-01-10T00:22:45;54.50;;;25.17;;
7359;SDS011;3720;48.274;7.796;2024-01-10T00:25:17;51.22;;;24.75;;
7359;SDS011;3720;48.274;7.796;2024-01-10T00:27:49;52.83;;;26.02;;
7359;SDS011;3720;48.274;7.796;2024-01-10T00:30:21;47.13;;;23.88;;
7359;SDS011;3720;48.274;7.796;2024-01-10T00:32:53;45.30;;;22.95;;
7359;SDS011;3720;48.274;7.796;2024-01-10T00:35:25;50.53;;;23.27;;
7359;SDS011;3720;48.274;7.796;2024-01-10T00:37:58;46.20;;;22.83;;
7359;SDS011;3720;48.274;7.796;2024-01-10T00:40:30;44.70;;;23.02;;
7359;SDS011;3720;48.274;7.796;2024-01-10T00:43:02;45.08;;;22.92;;
7359;SDS011;3720;48.274;7.796;2024-01-10T00:45:34;46.80;;;23.45;;
7359;SDS011;3720;48.274;7.796;2024-01-10T00:48:06;45.80;;;23.13;;
7359;SDS011;3720;48.274;7.796;2024-01-10T00:50:38;46.97;;;23.70;;
7359;SDS011;3720;48.274;7.796;2024-01-10T00:53:12;46.88;;;23.63;;
7359;SDS011;3720;48.274;7.796;2024-01-10T00:55:44;48.25;;;23.73;;
7359;SDS011;3720;48.274;7.796;2024-01-10T00:58:16;48.28;;;23.77;;
7359;SDS011;3720;48.274;7.796;2024-01-10T01:00:47;44.90;;;22.75;;
7359;SDS011;3720;48.274;7.796;2024-01-10T01:03:19;48.00;;;23.58;;
7359;SDS011;3720;48.274;7.796;2024-01-10T01:05:51;45.72;;;23.23;;
7359;SDS011;3720;48.274;7.796;2024-01-10T01:08:24;47.53;;;23.73;;
7359;SDS011;3720;48.274;7.796;2024-01-10T01:10:56;49.65;;;24.25;;
7359;SDS011;3720;48.274;7.796;2024-01-10T01:13:28;43.75;;;23.02;;
7359;SDS011;3720;48.274;7.796;2024-01-10T01:16:00;47.78;;;23.20;;
7359;SDS011;3720;48.274;7.796;2024-01-10T01:18:32;45.78;;;22.75;;
7359;SDS011;3720;48.274;7.796;2024-01-10T01:21:04;47.65;;;24.02;;
7359;SDS011;3720;48.274;7.796;2024-01-10T01:23:37;43.55;;;22.33;;
7359;SDS011;3720;48.274;7.796;2024-01-10T01:26:09;42.42;;;21.88;;
7359;SDS011;3720;48.274;7.796;2024-01-10T01:28:42;45.30;;;22.48;;
7359;SDS011;3720;48.274;7.796;2024-01-10T01:31:14;45.60;;;23.17;;
7359;SDS011;3720;48.274;7.796;2024-01-10T01:33:46;44.72;;;22.98;;
7359;SDS011;3720;48.274;7.796;2024-01-10T01:36:18;47.53;;;22.55;;
7359;SDS011;3720;48.274;7.796;2024-01-10T01:38:52;43.92;;;22.02;;
7359;SDS011;3720;48.274;7.796;2024-01-10T01:41:24;45.75;;;22.92;;
7359;SDS011;3720;48.274;7.796;2024-01-10T01:43:55;47.22;;;22.00;;
7359;SDS011;3720;48.274;7.796;2024-01-10T01:46:27;46.38;;;22.58;;
7359;SDS011;3720;48.274;7.796;2024-01-10T01:48:59;46.75;;;23.00;;
7359;SDS011;3720;48.274;7.796;2024-01-10T01:51:31;46.03;;;21.95;;
7359;SDS011;3720;48.274;7.796;2024-01-10T01:54:07;44.35;;;21.80;;
7359;SDS011;3720;48.274;7.796;2024-01-10T01:56:39;43.25;;;20.90;;
7359;SDS011;3720;48.274;7.796;2024-01-10T01:59:13;45.22;;;22.48;;
7359;SDS011;3720;48.274;7.796;2024-01-10T02:01:45;47.95;;;22.80;;
7359;SDS011;3720;48.274;7.796;2024-01-10T02:04:17;43.15;;;22.35;;
7359;SDS011;3720;48.274;7.796;2024-01-10T02:06:50;44.22;;;21.83;;
7359;SDS011;3720;48.274;7.796;2024-01-10T02:09:23;44.40;;;22.77;;
7359;SDS011;3720;48.274;7.796;2024-01-10T02:11:55;45.63;;;23.42;;
7359;SDS011;3720;48.274;7.796;2024-01-10T02:14:27;46.05;;;23.05;;
7359;SDS011;3720;48.274;7.796;2024-01-10T02:16:59;44.78;;;21.92;;
7359;SDS011;3720;48.274;7.796;2024-01-10T02:19:31;41.90;;;21.95;;
7359;SDS011;3720;48.274;7.796;2024-01-10T02:22:04;47.00;;;23.10;;
7359;SDS011;3720;48.274;7.796;2024-01-10T02:24:37;46.55;;;22.55;;
7359;SDS011;3720;48.274;7.796;2024-01-10T02:27:11;46.55;;;22.23;;
7359;SDS011;3720;48.274;7.796;2024-01-10T02:29:43;42.70;;;22.05;;
7359;SDS011;3720;48.274;7.796;2024-01-10T02:32:14;45.08;;;22.17;;
7359;SDS011;3720;48.274;7.796;2024-01-10T02:34:46;45.10;;;21.92;;
7359;SDS011;3720;48.274;7.796;2024-01-10T02:37:18;44.58;;;22.20;;
7359;SDS011;3720;48.274;7.796;2024-01-10T02:39:50;47.30;;;22.42;;
7359;SDS011;3720;48.274;7.796;2024-01-10T02:42:23;45.50;;;21.88;;
7359;SDS011;3720;48.274;7.796;2024-01-10T02:44:55;43.38;;;21.45;;
7359;SDS011;3720;48.274;7.796;2024-01-10T02:47:27;43.60;;;21.67;;
7359;SDS011;3720;48.274;7.796;2024-01-10T02:49:59;43.33;;;21.40;;
7359;SDS011;3720;48.274;7.796;2024-01-10T02:52:31;45.53;;;23.33;;
7359;SDS011;3720;48.274;7.796;2024-01-10T02:55:03;45.53;;;22.75;;
7359;SDS011;3720;48.274;7.796;2024-01-10T02:57:38;45.47;;;22.75;;
7359;SDS011;3720;48.274;7.796;2024-01-10T03:00:10;44.83;;;23.70;;
7359;SDS011;3720;48.274;7.796;2024-01-10T03:02:43;44.35;;;22.75;;
7359;SDS011;3720;48.274;7.796;2024-01-10T03:05:15;46.38;;;22.23;;
7359;SDS011;3720;48.274;7.796;2024-01-10T03:07:46;43.25;;;22.10;;
7359;SDS011;3720;48.274;7.796;2024-01-10T03:10:18;49.60;;;24.38;;
7359;SDS011;3720;48.274;7.796;2024-01-10T03:12:51;47.55;;;23.73;;
7359;SDS011;3720;48.274;7.796;2024-01-10T03:15:23;49.10;;;24.00;;
7359;SDS011;3720;48.274;7.796;2024-01-10T03:17:55;45.75;;;23.95;;
7359;SDS011;3720;48.274;7.796;2024-01-10T03:20:27;44.80;;;22.63;;
7359;SDS011;3720;48.274;7.796;2024-01-10T03:22:59;45.60;;;23.13;;
7359;SDS011;3720;48.274;7.796;2024-01-10T03:25:31;45.05;;;23.17;;
7359;SDS011;3720;48.274;7.796;2024-01-10T03:28:04;45.60;;;22.85;;
7359;SDS011;3720;48.274;7.796;2024-01-10T03:30:36;47.35;;;23.60;;
7359;SDS011;3720;48.274;7.796;2024-01-10T03:33:08;44.75;;;23.13;;
7359;SDS011;3720;48.274;7.796;2024-01-10T03:35:40;45.33;;;23.30;;
7359;SDS011;3720;48.274;7.796;2024-01-10T03:38:12;52.58;;;24.02;;
7359;SDS011;3720;48.274;7.796;2024-01-10T03:40:46;47.83;;;23.27;;
7359;SDS011;3720;48.274;7.796;2024-01-10T03:43:19;48.20;;;23.20;;
7359;SDS011;3720;48.274;7.796;2024-01-10T03:45:51;44.47;;;22.17;;
7359;SDS011;3720;48.274;7.796;2024-01-10T03:48:23;44.60;;;22.88;;
7359;SDS011;3720;48.274;7.796;2024-01-10T03:50:55;47.77;;;23.87;;
7359;SDS011;3720;48.274;7.796;2024-01-10T03:53:27;45.15;;;23.13;;
7359;SDS011;3720;48.274;7.796;2024-01-10T03:55:59;44.20;;;22.17;;
7359;SDS011;3720;48.274;7.796;2024-01-10T03:58:36;43.67;;;22.37;;
7359;SDS011;3720;48.274;7.796;2024-01-10T04:01:08;47.08;;;22.25;;
7359;SDS011;3720;48.274;7.796;2024-01-10T04:03:40;43.50;;;22.00;;
7359;SDS011;3720;48.274;7.796;2024-01-10T04:06:12;39.80;;;20.90;;
7359;SDS011;3720;48.274;7.796;2024-01-10T04:08:45;38.25;;;19.73;;
7359;SDS011;3720;48.274;7.796;2024-01-10T04:11:16;39.65;;;20.73;;
7359;SDS011;3720;48.274;7.796;2024-01-10T04:13:50;42.13;;;21.02;;
7359;SDS011;3720;48.274;7.796;2024-01-10T04:16:21;40.70;;;20.00;;
7359;SDS011;3720;48.274;7.796;2024-01-10T04:18:53;39.70;;;19.73;;
7359;SDS011;3720;48.274;7.796;2024-01-10T04:21:25;41.78;;;20.25;;
7359;SDS011;3720;48.274;7.796;2024-01-10T04:23:57;42.17;;;21.00;;
7359;SDS011;3720;48.274;7.796;2024-01-10T04:26:29;41.47;;;20.42;;
7359;SDS011;3720;48.274;7.796;2024-01-10T04:29:03;42.13;;;21.50;;
7359;SDS011;3720;48.274;7.796;2024-01-10T04:31:35;42.93;;;21.07;;
7359;SDS011;3720;48.274;7.796;2024-01-10T04:34:07;40.10;;;21.30;;
7359;SDS011;3720;48.274;7.796;2024-01-10T04:36:39;40.67;;;20.73;;
7359;SDS011;3720;48.274;7.796;2024-01-10T04:39:11;42.17;;;20.10;;
7359;SDS011;3720;48.274;7.796;2024-01-10T04:41:43;41.13;;;20.70;;
7359;SDS011;3720;48.274;7.796;2024-01-10T04:44:16;40.33;;;20.13;;
7359;SDS011;3720;48.274;7.796;2024-01-10T04:46:48;38.33;;;20.00;;
7359;SDS011;3720;48.274;7.796;2024-01-10T04:49:19;42.17;;;20.87;;
7359;SDS011;3720;48.274;7.796;2024-01-10T04:51:51;38.33;;;19.67;;
7359;SDS011;3720;48.274;7.796;2024-01-10T04:54:23;39.37;;;19.87;;
7359;SDS011;3720;48.274;7.796;2024-01-10T04:56:55;39.47;;;19.73;;
7359;SDS011;3720;48.274;7.796;2024-01-10T04:59:28;43.23;;;21.00;;
7359;SDS011;3720;48.274;7.796;2024-01-10T05:02:00;39.30;;;20.47;;
7359;SDS011;3720;48.274;7.796;2024-01-10T05:04:32;44.17;;;21.67;;
7359;SDS011;3720;48.274;7.796;2024-01-10T05:07:04;41.40;;;20.67;;
7359;SDS011;3720;48.274;7.796;2024-01-10T05:09:36;38.73;;;19.77;;
7359;SDS011;3720;48.274;7.796;2024-01-10T05:12:08;41.70;;;20.63;;
7359;SDS011;3720;48.274;7.796;2024-01-10T05:14:41;40.10;;;19.57;;
7359;SDS011;3720;48.274;7.796;2024-01-10T05:17:13;40.63;;;20.30;;
7359;SDS011;3720;48.274;7.796;2024-01-10T05:19:45;39.50;;;19.77;;
7359;SDS011;3720;48.274;7.796;2024-01-10T05:22:17;40.10;;;20.27;;
7359;SDS011;3720;48.274;7.796;2024-01-10T05:24:48;43.90;;;20.40;;
7359;SDS011;3720;48.274;7.796;2024-01-10T05:27:20;40.17;;;19.73;;
7359;SDS011;3720;48.274;7.796;2024-01-10T05:29:54;42.13;;;20.40;;
7359;SDS011;3720;48.274;7.796;2024-01-10T05:32:26;45.63;;;21.07;;
7359;SDS011;3720;48.274;7.796;2024-01-10T05:34:58;43.67;;;20.77;;
7359;SDS011;3720;48.274;7.796;2024-01-10T05:37:30;46.50;;;22.67;;
7359;SDS011;3720;48.274;7.796;2024-01-10T05:40:03;42.83;;;21.17;;
7359;SDS011;3720;48.274;7.796;2024-01-10T05:42:36;45.03;;;21.77;;
7359;SDS011;3720;48.274;7.796;2024-01-10T05:45:09;45.27;;;21.70;;
7359;SDS011;3720;48.274;7.796;2024-01-10T05:47:42;43.37;;;20.90;;
7359;SDS011;3720;48.274;7.796;2024-01-10T05:50:13;41.10;;;20.77;;
7359;SDS011;3720;48.274;7.796;2024-01-10T05:52:45;41.07;;;21.20;;
7359;SDS011;3720;48.274;7.796;2024-01-10T05:55:17;45.03;;;21.53;;
7359;SDS011;3720;48.274;7.796;2024-01-10T05:57:50;45.63;;;21.17;;
7359;SDS011;3720;48.274;7.796;2024-01-10T06:00:23;44.77;;;20.93;;
7359;SDS011;3720;48.274;7.796;2024-01-10T06:02:56;45.57;;;21.20;;
7359;SDS011;3720;48.274;7.796;2024-01-10T06:05:27;40.30;;;20.47;;
7359;SDS011;3720;48.274;7.796;2024-01-10T06:08:00;43.20;;;20.77;;
7359;SDS011;3720;48.274;7.796;2024-01-10T06:10:34;46.60;;;21.13;;
7359;SDS011;3720;48.274;7.796;2024-01-10T06:13:06;44.40;;;20.90;;
7359;SDS011;3720;48.274;7.796;2024-01-10T06:15:39;41.80;;;20.50;;
7359;SDS011;3720;48.274;7.796;2024-01-10T06:18:11;41.63;;;20.17;;
7359;SDS011;3720;48.274;7.796;2024-01-10T06:20:43;41.43;;;19.93;;
7359;SDS011;3720;48.274;7.796;2024-01-10T06:23:15;45.43;;;21.90;;
7359;SDS011;3720;48.274;7.796;2024-01-10T06:25:47;41.30;;;20.43;;
7359;SDS011;3720;48.274;7.796;2024-01-10T06:28:18;40.87;;;20.27;;
7359;SDS011;3720;48.274;7.796;2024-01-10T06:30:52;40.97;;;20.23;;
7359;SDS011;3720;48.274;7.796;2024-01-10T06:33:23;45.17;;;20.93;;
7359;SDS011;3720;48.274;7.796;2024-01-10T06:35:55;46.13;;;21.70;;
7359;SDS011;3720;48.274;7.796;2024-01-10T06:38:28;44.37;;;21.33;;
7359;SDS011;3720;48.274;7.796;2024-01-10T06:41:00;50.33;;;22.13;;
7359;SDS011;3720;48.274;7.796;2024-01-10T06:43:32;46.47;;;22.10;;
7359;SDS011;3720;48.274;7.796;2024-01-10T06:46:06;50.03;;;22.97;;
7359;SDS011;3720;48.274;7.796;2024-01-10T06:48:38;45.53;;;21.40;;
7359;SDS011;3720;48.274;7.796;2024-01-10T06:51:10;45.97;;;22.13;;
7359;SDS011;3720;48.274;7.796;2024-01-10T06:53:43;50.80;;;23.00;;
7359;SDS011;3720;48.274;7.796;2024-01-10T06:56:15;44.37;;;21.17;;
7359;SDS011;3720;48.274;7.796;2024-01-10T06:58:47;51.20;;;22.83;;
7359;SDS011;3720;48.274;7.796;2024-01-10T07:01:20;47.60;;;21.70;;
7359;SDS011;3720;48.274;7.796;2024-01-10T07:03:52;44.57;;;21.90;;
7359;SDS011;3720;48.274;7.796;2024-01-10T07:06:24;49.73;;;23.43;;
7359;SDS011;3720;48.274;7.796;2024-01-10T07:08:56;46.37;;;22.33;;
7359;SDS011;3720;48.274;7.796;2024-01-10T07:11:38;46.23;;;22.03;;
7359;SDS011;3720;48.274;7.796;2024-01-10T07:14:10;54.93;;;25.43;;
7359;SDS011;3720;48.274;7.796;2024-01-10T07:16:45;48.50;;;23.50;;
7359;SDS011;3720;48.274;7.796;2024-01-10T07:19:17;48.40;;;24.00;;
7359;SDS011;3720;48.274;7.796;2024-01-10T07:21:49;51.40;;;23.20;;
7359;SDS011;3720;48.274;7.796;2024-01-10T07:24:21;42.50;;;20.93;;
7359;SDS011;3720;48.274;7.796;2024-01-10T07:26:53;47.57;;;22.53;;
7359;SDS011;3720;48.274;7.796;2024-01-10T07:29:24;48.07;;;23.03;;
7359;SDS011;3720;48.274;7.796;2024-01-10T07:31:58;48.67;;;23.30;;
7359;SDS011;3720;48.274;7.796;2024-01-10T07:34:29;49.47;;;23.87;;
7359;SDS011;3720;48.274;7.796;2024-01-10T07:37:02;46.20;;;22.40;;
7359;SDS011;3720;48.274;7.796;2024-01-10T07:39:34;51.13;;;23.43;;
7359;SDS011;3720;48.274;7.796;2024-01-10T07:42:06;49.87;;;23.50;;
7359;SDS011;3720;48.274;7.796;2024-01-10T07:44:38;42.53;;;21.10;;
7359;SDS011;3720;48.274;7.796;2024-01-10T07:47:11;47.80;;;22.60;;
7359;SDS011;3720;48.274;7.796;2024-01-10T07:49:43;48.43;;;23.43;;
7359;SDS011;3720;48.274;7.796;2024-01-10T07:52:15;48.57;;;23.40;;
7359;SDS011;3720;48.274;7.796;2024-01-10T07:54:47;44.23;;;22.07;;
7359;SDS011;3720;48.274;7.796;2024-01-10T07:57:19;52.47;;;24.97;;
7359;SDS011;3720;48.274;7.796;2024-01-10T07:59:51;47.27;;;23.07;;
7359;SDS011;3720;48.274;7.796;2024-01-10T08:02:24;53.97;;;25.20;;
7359;SDS011;3720;48.274;7.796;2024-01-10T08:04:56;53.27;;;25.80;;
7359;SDS011;3720;48.274;7.796;2024-01-10T08:07:27;51.33;;;25.37;;
7359;SDS011;3720;48.274;7.796;2024-01-10T08:09:59;51.30;;;24.53;;
7359;SDS011;3720;48.274;7.796;2024-01-10T08:12:31;58.53;;;27.80;;
7359;SDS011;3720;48.274;7.796;2024-01-10T08:15:03;61.63;;;29.73;;
7359;SDS011;3720;48.274;7.796;2024-01-10T08:17:37;59.77;;;28.60;;
7359;SDS011;3720;48.274;7.796;2024-01-10T08:20:09;61.17;;;30.17;;
7359;SDS011;3720;48.274;7.796;2024-01-10T08:22:44;57.60;;;27.93;;
7359;SDS011;3720;48.274;7.796;2024-01-10T08:25:17;57.47;;;27.27;;
7359;SDS011;3720;48.274;7.796;2024-01-10T08:27:49;64.50;;;28.40;;
7359;SDS011;3720;48.274;7.796;2024-01-10T08:30:22;62.37;;;28.97;;
7359;SDS011;3720;48.274;7.796;2024-01-10T08:32:55;56.57;;;28.17;;
7359;SDS011;3720;48.274;7.796;2024-01-10T08:35:27;52.40;;;26.97;;
7359;SDS011;3720;48.274;7.796;2024-01-10T08:37:59;52.73;;;27.03;;
7359;SDS011;3720;48.274;7.796;2024-01-10T08:40:33;52.63;;;26.30;;
7359;SDS011;3720;48.274;7.796;2024-01-10T08:43:04;54.10;;;25.80;;
7359;SDS011;3720;48.274;7.796;2024-01-10T08:45:36;55.63;;;26.13;;
7359;SDS011;3720;48.274;7.796;2024-01-10T08:48:09;61.53;;;29.60;;
7359;SDS011;3720;48.274;7.796;2024-01-10T08:50:43;86.87;;;40.00;;
7359;SDS011;3720;48.274;7.796;2024-01-10T08:53:15;74.03;;;36.83;;
7359;SDS011;3720;48.274;7.796;2024-01-10T08:55:47;66.03;;;33.03;;
7359;SDS011;3720;48.274;7.796;2024-01-10T08:58:18;73.30;;;35.10;;
7359;SDS011;3720;48.274;7.796;2024-01-10T09:00:50;68.80;;;35.07;;
7359;SDS011;3720;48.274;7.796;2024-01-10T09:03:23;69.40;;;33.93;;
7359;SDS011;3720;48.274;7.796;2024-01-10T09:05:55;65.40;;;31.67;;
7359;SDS011;3720;48.274;7.796;2024-01-10T09:08:27;61.10;;;30.60;;
7359;SDS011;3720;48.274;7.796;2024-01-10T09:10:59;53.73;;;27.50;;
7359;SDS011;3720;48.274;7.796;2024-01-10T09:13:31;54.40;;;25.90;;
7359;SDS011;3720;48.274;7.796;2024-01-10T09:16:04;47.20;;;23.13;;
7359;SDS011;3720;48.274;7.796;2024-01-10T09:18:37;42.43;;;21.07;;
7359;SDS011;3720;48.274;7.796;2024-01-10T09:21:10;44.53;;;21.35;;
7359;SDS011;3720;48.274;7.796;2024-01-10T09:23:42;45.92;;;22.85;;
7359;SDS011;3720;48.274;7.796;2024-01-10T09:26:14;51.72;;;24.55;;
7359;SDS011;3720;48.274;7.796;2024-01-10T09:28:45;46.17;;;23.85;;
7359;SDS011;3720;48.274;7.796;2024-01-10T09:31:17;49.25;;;25.77;;
7359;SDS011;3720;48.274;7.796;2024-01-10T09:33:50;43.63;;;22.30;;
7359;SDS011;3720;48.274;7.796;2024-01-10T09:36:22;43.35;;;23.05;;
7359;SDS011;3720;48.274;7.796;2024-01-10T09:38:54;46.38;;;23.38;;
7359;SDS011;3720;48.274;7.796;2024-01-10T09:41:26;45.25;;;22.58;;
7359;SDS011;3720;48.274;7.796;2024-01-10T09:44:02;43.22;;;21.55;;
7359;SDS011;3720;48.274;7.796;2024-01-10T09:46:34;40.83;;;21.23;;
7359;SDS011;3720;48.274;7.796;2024-01-10T09:49:11;45.63;;;21.98;;
7359;SDS011;3720;48.274;7.796;2024-01-10T09:51:43;44.15;;;21.10;;
7359;SDS011;3720;48.274;7.796;2024-01-10T09:54:18;35.70;;;19.33;;
7359;SDS011;3720;48.274;7.796;2024-01-10T09:56:52;39.15;;;19.58;;
7359;SDS011;3720;48.274;7.796;2024-01-10T09:59:25;36.50;;;19.45;;
7359;SDS011;3720;48.274;7.796;2024-01-10T10:01:57;38.47;;;20.95;;
7359;SDS011;3720;48.274;7.796;2024-01-10T10:04:31;39.25;;;20.95;;
7359;SDS011;3720;48.274;7.796;2024-01-10T10:07:03;43.92;;;21.20;;
7359;SDS011;3720;48.274;7.796;2024-01-10T10:09:35;37.75;;;20.92;;
7359;SDS011;3720;48.274;7.796;2024-01-10T10:12:07;40.13;;;20.95;;
7359;SDS011;3720;48.274;7.796;2024-01-10T10:14:40;39.97;;;20.23;;
7359;SDS011;3720;48.274;7.796;2024-01-10T10:17:15;38.22;;;19.98;;
7359;SDS011;3720;48.274;7.796;2024-01-10T10:19:49;37.92;;;20.08;;
7359;SDS011;3720;48.274;7.796;2024-01-10T10:22:21;40.95;;;20.20;;
7359;SDS011;3720;48.274;7.796;2024-01-10T10:24:53;38.08;;;21.48;;
7359;SDS011;3720;48.274;7.796;2024-01-10T10:27:25;38.20;;;20.98;;
7359;SDS011;3720;48.274;7.796;2024-01-10T10:29:57;38.75;;;20.75;;
7359;SDS011;3720;48.274;7.796;2024-01-10T10:32:29;40.13;;;20.63;;
7359;SDS011;3720;48.274;7.796;2024-01-10T10:35:03;35.65;;;19.75;;
7359;SDS011;3720;48.274;7.796;2024-01-10T10:37:37;38.63;;;19.27;;
7359;SDS011;3720;48.274;7.796;2024-01-10T10:40:10;34.08;;;18.92;;
7359;SDS011;3720;48.274;7.796;2024-01-10T10:42:44;32.38;;;17.83;;
7359;SDS011;3720;48.274;7.796;2024-01-10T10:45:17;35.80;;;18.90;;
7359;SDS011;3720;48.274;7.796;2024-01-10T10:47:56;33.40;;;17.75;;
7359;SDS011;3720;48.274;7.796;2024-01-10T10:50:32;34.58;;;18.77;;
7359;SDS011;3720;48.274;7.796;2024-01-10T10:53:06;31.75;;;18.20;;
7359;SDS011;3720;48.274;7.796;2024-01-10T10:55:39;34.35;;;18.75;;
7359;SDS011;3720;48.274;7.796;2024-01-10T10:58:12;31.63;;;17.30;;
7359;SDS011;3720;48.274;7.796;2024-01-10T11:00:45;31.08;;;18.08;;
7359;SDS011;3720;48.274;7.796;2024-01-10T11:03:19;40.25;;;18.25;;
7359;SDS011;3720;48.274;7.796;2024-01-10T11:05:54;33.42;;;18.60;;
7359;SDS011;3720;48.274;7.796;2024-01-10T11:08:26;32.50;;;17.65;;
7359;SDS011;3720;48.274;7.796;2024-01-10T11:10:59;30.27;;;17.95;;
7359;SDS011;3720;48.274;7.796;2024-01-10T11:13:45;33.58;;;18.60;;
7359;SDS011;3720;48.274;7.796;2024-01-10T11:19:41;35.67;;;20.00;;
7359;SDS011;3720;48.274;7.796;2024-01-10T11:22:32;33.08;;;18.77;;
7359;SDS011;3720;48.274;7.796;2024-01-10T11:25:14;32.05;;;18.23;;
7359;SDS011;3720;48.274;7.796;2024-01-10T11:27:51;33.55;;;18.23;;
7359;SDS011;3720;48.274;7.796;2024-01-10T11:30:30;42.45;;;23.83;;
7359;SDS011;3720;48.274;7.796;2024-01-10T11:33:21;34.92;;;20.15;;
7359;SDS011;3720;48.274;7.796;2024-01-10T11:36:07;34.15;;;18.40;;
7359;SDS011;3720;48.274;7.796;2024-01-10T11:38:43;34.05;;;18.67;;
7359;SDS011;3720;48.274;7.796;2024-01-10T11:41:22;35.50;;;18.95;;
7359;SDS011;3720;48.274;7.796;2024-01-10T11:47:01;32.58;;;18.08;;
7359;SDS011;3720;48.274;7.796;2024-01-10T11:49:35;31.58;;;18.33;;
7359;SDS011;3720;48.274;7.796;2024-01-10T11:52:08;33.92;;;18.48;;
7359;SDS011;3720;48.274;7.796;2024-01-10T11:54:45;31.45;;;17.00;;
7359;SDS011;3720;48.274;7.796;2024-01-10T11:57:21;33.60;;;17.48;;
7359;SDS011;3720;48.274;7.796;2024-01-10T11:59:54;33.90;;;17.90;;
7359;SDS011;3720;48.274;7.796;2024-01-10T12:02:29;30.90;;;17.23;;
7359;SDS011;3720;48.274;7.796;2024-01-10T12:05:02;33.03;;;17.65;;
7359;SDS011;3720;48.274;7.796;2024-01-10T12:07:35;33.97;;;18.65;;
7359;SDS011;3720;48.274;7.796;2024-01-10T12:10:09;29.88;;;17.80;;
7359;SDS011;3720;48.274;7.796;2024-01-10T12:12:41;32.47;;;17.33;;
7359;SDS011;3720;48.274;7.796;2024-01-10T12:15:13;31.77;;;18.05;;
7359;SDS011;3720;48.274;7.796;2024-01-10T12:17:45;28.95;;;17.00;;
7359;SDS011;3720;48.274;7.796;2024-01-10T12:20:17;31.33;;;17.90;;
7359;SDS011;3720;48.274;7.796;2024-01-10T12:22:49;28.70;;;17.50;;
7359;SDS011;3720;48.274;7.796;2024-01-10T12:25:23;28.58;;;18.10;;
7359;SDS011;3720;48.274;7.796;2024-01-10T12:28:00;31.48;;;18.42;;
7359;SDS011;3720;48.274;7.796;2024-01-10T12:30:32;29.52;;;17.67;;
7359;SDS011;3720;48.274;7.796;2024-01-10T12:33:04;31.45;;;18.23;;
7359;SDS011;3720;48.274;7.796;2024-01-10T12:35:36;29.75;;;18.35;;
7359;SDS011;3720;48.274;7.796;2024-01-10T12:38:12;31.80;;;19.10;;
7359;SDS011;3720;48.274;7.796;2024-01-10T12:40:46;33.25;;;19.17;;
7359;SDS011;3720;48.274;7.796;2024-01-10T12:43:18;30.13;;;17.92;;
7359;SDS011;3720;48.274;7.796;2024-01-10T12:46:02;32.88;;;18.63;;
7359;SDS011;3720;48.274;7.796;2024-01-10T12:48:34;33.75;;;18.42;;
7359;SDS011;3720;48.274;7.796;2024-01-10T12:51:07;30.00;;;18.20;;
7359;SDS011;3720;48.274;7.796;2024-01-10T12:53:40;30.27;;;18.17;;
7359;SDS011;3720;48.274;7.796;2024-01-10T12:56:14;33.47;;;18.85;;
7359;SDS011;3720;48.274;7.796;2024-01-10T12:58:46;32.13;;;18.83;;
7359;SDS011;3720;48.274;7.796;2024-01-10T13:01:18;33.33;;;18.77;;
7359;SDS011;3720;48.274;7.796;2024-01-10T13:03:50;33.30;;;18.63;;
7359;SDS011;3720;48.274;7.796;2024-01-10T13:06:23;31.95;;;19.02;;
7359;SDS011;3720;48.274;7.796;2024-01-10T13:08:54;29.95;;;18.42;;
7359;SDS011;3720;48.274;7.796;2024-01-10T13:11:28;34.58;;;19.02;;
7359;SDS011;3720;48.274;7.796;2024-01-10T13:14:00;32.45;;;20.00;;
7359;SDS011;3720;48.274;7.796;2024-01-10T13:16:32;32.80;;;19.00;;
7359;SDS011;3720;48.274;7.796;2024-01-10T13:19:04;30.80;;;18.95;;
7359;SDS011;3720;48.274;7.796;2024-01-10T13:21:36;34.67;;;20.30;;
7359;SDS011;3720;48.274;7.796;2024-01-10T13:24:09;33.25;;;19.15;;
7359;SDS011;3720;48.274;7.796;2024-01-10T13:26:42;31.25;;;19.38;;
7359;SDS011;3720;48.274;7.796;2024-01-10T13:29:14;31.75;;;19.88;;
7359;SDS011;3720;48.274;7.796;2024-01-10T13:31:46;30.75;;;19.25;;
7359;SDS011;3720;48.274;7.796;2024-01-10T13:34:19;30.70;;;19.08;;
7359;SDS011;3720;48.274;7.796;2024-01-10T13:36:51;34.17;;;19.40;;
7359;SDS011;3720;48.274;7.796;2024-01-10T13:39:23;33.72;;;19.13;;
7359;SDS011;3720;48.274;7.796;2024-01-10T13:41:56;30.58;;;18.30;;
7359;SDS011;3720;48.274;7.796;2024-01-10T13:44:28;31.45;;;18.77;;
7359;SDS011;3720;48.274;7.796;2024-01-10T13:47:00;30.65;;;18.38;;
7359;SDS011;3720;48.274;7.796;2024-01-10T13:49:33;31.70;;;19.50;;
7359;SDS011;3720;48.274;7.796;2024-01-10T13:52:05;29.85;;;19.08;;
7359;SDS011;3720;48.274;7.796;2024-01-10T13:54:37;30.55;;;18.77;;
7359;SDS011;3720;48.274;7.796;2024-01-10T13:57:10;34.83;;;19.65;;
7359;SDS011;3720;48.274;7.796;2024-01-10T13:59:42;31.92;;;19.08;;
7359;SDS011;3720;48.274;7.796;2024-01-10T14:02:14;31.77;;;19.48;;
7359;SDS011;3720;48.274;7.796;2024-01-10T14:04:48;33.35;;;19.45;;
7359;SDS011;3720;48.274;7.796;2024-01-10T14:07:20;32.65;;;19.70;;
7359;SDS011;3720;48.274;7.796;2024-01-10T14:09:52;31.27;;;18.70;;
7359;SDS011;3720;48.274;7.796;2024-01-10T14:12:26;34.30;;;19.58;;
7359;SDS011;3720;48.274;7.796;2024-01-10T14:14:58;34.50;;;19.70;;
7359;SDS011;3720;48.274;7.796;2024-01-10T14:17:31;32.58;;;19.00;;
7359;SDS011;3720;48.274;7.796;2024-01-10T14:20:03;30.20;;;18.05;;
7359;SDS011;3720;48.274;7.796;2024-01-10T14:22:39;32.45;;;19.33;;
7359;SDS011;3720;48.274;7.796;2024-01-10T14:25:12;33.30;;;19.02;;
7359;SDS011;3720;48.274;7.796;2024-01-10T14:27:45;31.58;;;18.67;;
7359;SDS011;3720;48.274;7.796;2024-01-10T14:30:17;33.40;;;18.40;;
7359;SDS011;3720;48.274;7.796;2024-01-10T14:32:49;31.23;;;18.65;;
7359;SDS011;3720;48.274;7.796;2024-01-10T14:35:21;31.33;;;18.98;;
7359;SDS011;3720;48.274;7.796;2024-01-10T14:37:53;30.83;;;18.63;;
7359;SDS011;3720;48.274;7.796;2024-01-10T14:40:25;33.28;;;19.67;;
7359;SDS011;3720;48.274;7.796;2024-01-10T14:42:59;32.88;;;18.95;;
7359;SDS011;3720;48.274;7.796;2024-01-10T14:45:31;33.72;;;20.60;;
7359;SDS011;3720;48.274;7.796;2024-01-10T14:48:03;31.45;;;19.17;;
7359;SDS011;3720;48.274;7.796;2024-01-10T14:50:35;35.60;;;19.88;;
7359;SDS011;3720;48.274;7.796;2024-01-10T14:53:07;33.13;;;19.60;;
7359;SDS011;3720;48.274;7.796;2024-01-10T14:55:39;32.58;;;19.63;;
7359;SDS011;3720;48.274;7.796;2024-01-10T14:58:12;32.20;;;18.50;;
7359;SDS011;3720;48.274;7.796;2024-01-10T15:00:45;36.05;;;19.85;;
7359;SDS011;3720;48.274;7.796;2024-01-10T15:03:17;40.45;;;22.02;;
7359;SDS011;3720;48.274;7.796;2024-01-10T15:05:49;37.25;;;20.35;;
7359;SDS011;3720;48.274;7.796;2024-01-10T15:08:23;32.42;;;19.92;;
7359;SDS011;3720;48.274;7.796;2024-01-10T15:10:55;36.53;;;21.65;;
7359;SDS011;3720;48.274;7.796;2024-01-10T15:13:28;39.22;;;22.50;;
7359;SDS011;3720;48.274;7.796;2024-01-10T15:16:00;36.58;;;21.30;;
7359;SDS011;3720;48.274;7.796;2024-01-10T15:18:32;39.22;;;23.42;;
7359;SDS011;3720;48.274;7.796;2024-01-10T15:21:04;40.33;;;22.60;;
7359;SDS011;3720;48.274;7.796;2024-01-10T15:23:36;39.58;;;21.65;;
7359;SDS011;3720;48.274;7.796;2024-01-10T15:26:09;42.13;;;23.33;;
7359;SDS011;3720;48.274;7.796;2024-01-10T15:28:47;38.00;;;22.58;;